Airfield :
LOGIN :

Register | Disclaimer

   EN    FR    IT 

 










Legend :    VFR   Marginal VFR   IFR   Intensive IFR   Very Intensive IFR
Visi :
Ceiling :
>= 8 km
>= 3000ft
5 to 8 km
1000 to 3000 ft
1500m to 5 km
500 to 1000 ft
800 to 1500m
200 to 500 ft
< 800m
< 200 ft
Symbols :   Thunderstorms  Fog  Heavy snow  Heavy precipitations  Wind > 20 kt
SIGMETs :     Misc.  Thunderstorms  Icing  Turbulence  Mountain Waves  Volcanic Ashes







- Airport Elevation : 1 ft
- Download approach charts


EGCK - Caernarfon

CURRENT METAR :
  • 211520Z 20017KT 5000 -RA BKN006 OVC012 13/12 Q1001

EXPIRED METARs :
  • 211450Z 20017KT 6000 -RA BKN006 OVC012 13/12 Q1002
  • 211420Z 19015KT 7000 -RA OVC007 13/12 Q1002
  • 211350Z 19017KT 5000 -RA BKN005 OVC008 13/12 Q1003 RERA
  • 211320Z 19019KT 2500 +RA OVC002 12/12 Q1004
  • 211250Z 18016G29KT 5000 -RA OVC004 12/11 Q1004

TAF TAF EGCK
Valid from the 21 at 15:00 until the 22 at 00:00 UTC


211359Z 2115/2124 21015KT 9999 BKN010
TEMPO 2115/2124 3000 RA BKN004
PROB30
TEMPO 2115/2124 22018G28KT
PROB30
TEMPO 2115/2117 +RA
PROB30
TEMPO 2120/2124 BKN001
No reported NOTAMs for that airfield.



MET'MAP, your aeronautical weather chart ! - Copyright ORBIFLY December 2007 - Disclaimer

ORBIFLY MET'MAP TEAM :

Programming & Development : Alexandra Zaïnal
Concept & Development : Baudouin d'Aumeries
Co-Development & Prog : Marc-Olivier Méhu
Technical & hardware support : Manuel Goepfert

Contact : metmap@orbifly.com




SOURCES & CREDITS :

   NOAA